createdAt,value
2023-03-31T00:01:14.919Z,50.76
2023-03-31T00:03:45.144Z,51.27
2023-03-31T00:06:19.261Z,51.63
2023-03-31T00:08:52.768Z,51.99
2023-03-31T00:11:24.233Z,51.84
2023-03-31T00:13:52.602Z,51.86
2023-03-31T00:16:20.948Z,51.94
2023-03-31T00:18:51.567Z,52.00
2023-03-31T00:21:26.002Z,52.09
2023-03-31T00:23:58.380Z,52.26
2023-03-31T00:26:27.439Z,52.34
2023-03-31T00:28:56.328Z,52.36
2023-03-31T00:31:25.184Z,52.85
2023-03-31T00:33:53.756Z,52.97
2023-03-31T00:36:22.434Z,53.28
2023-03-31T00:38:52.435Z,53.15
2023-03-31T00:41:21.215Z,52.89
2023-03-31T00:44:19.796Z,53.37
2023-03-31T00:46:55.003Z,53.20
2023-03-31T00:49:37.116Z,52.91
2023-03-31T00:52:14.629Z,53.40
2023-03-31T00:54:46.876Z,53.51
2023-03-31T00:57:16.851Z,53.33
2023-03-31T00:59:50.402Z,53.03
2023-03-31T01:02:21.464Z,52.57
2023-03-31T01:05:02.996Z,52.08
2023-03-31T01:07:39.257Z,52.27
2023-03-31T01:10:08.126Z,51.28
2023-03-31T01:12:41.115Z,51.48
2023-03-31T01:15:11.218Z,51.32
2023-03-31T01:17:39.970Z,51.65
2023-03-31T01:20:17.039Z,51.48
2023-03-31T01:23:03.993Z,51.40
2023-03-31T01:25:48.834Z,51.49
2023-03-31T01:28:17.021Z,51.55
2023-03-31T01:31:03.781Z,51.33
2023-03-31T01:34:00.145Z,51.07
2023-03-31T01:36:49.694Z,51.06
2023-03-31T01:39:43.652Z,51.18
2023-03-31T01:42:35.773Z,51.16
2023-03-31T01:45:18.659Z,51.34
2023-03-31T01:47:59.890Z,51.72
2023-03-31T01:50:40.176Z,51.93
2023-03-31T01:53:37.308Z,51.62
2023-03-31T01:56:05.628Z,51.60
2023-03-31T01:58:42.099Z,51.61
2023-03-31T02:01:37.510Z,51.88
2023-03-31T02:04:11.357Z,51.49
2023-03-31T02:06:44.795Z,51.89
2023-03-31T02:09:18.375Z,51.77
2023-03-31T02:11:49.177Z,51.78
2023-03-31T02:14:22.777Z,52.26
2023-03-31T02:16:59.396Z,52.56
2023-03-31T02:19:32.954Z,52.72
2023-03-31T02:22:02.357Z,52.80
2023-03-31T02:24:32.493Z,52.67
2023-03-31T02:27:06.240Z,52.61
2023-03-31T02:29:35.113Z,52.82
2023-03-31T02:32:14.139Z,52.43
2023-03-31T02:34:42.671Z,52.87
2023-03-31T02:37:11.953Z,52.96
2023-03-31T02:39:42.779Z,52.97
2023-03-31T02:42:11.807Z,53.09
2023-03-31T02:44:41.177Z,53.29
2023-03-31T02:47:13.105Z,53.28
2023-03-31T02:49:47.533Z,53.50
2023-03-31T02:52:25.190Z,53.24
2023-03-31T02:55:10.491Z,53.65
2023-03-31T02:58:19.114Z,53.73
2023-03-31T03:00:59.585Z,53.63
2023-03-31T03:03:38.261Z,53.11
2023-03-31T03:06:39.450Z,53.41
2023-03-31T03:09:24.064Z,53.67
2023-03-31T03:12:09.376Z,53.78
2023-03-31T03:14:46.557Z,54.01
2023-03-31T03:17:33.164Z,54.18
2023-03-31T03:20:03.956Z,54.44
2023-03-31T03:22:32.165Z,54.56
2023-03-31T03:25:00.354Z,54.88
2023-03-31T03:27:29.267Z,54.81
2023-03-31T03:29:57.537Z,54.80
2023-03-31T03:32:25.772Z,54.86
2023-03-31T03:34:53.995Z,55.00
2023-03-31T03:37:22.258Z,55.18
2023-03-31T03:39:50.464Z,55.18
2023-03-31T03:42:18.739Z,54.93
2023-03-31T03:44:47.010Z,54.99
2023-03-31T03:47:15.514Z,54.86
2023-03-31T03:49:43.828Z,54.99
2023-03-31T03:52:12.233Z,55.09
2023-03-31T03:54:40.417Z,55.26
2023-03-31T03:57:08.790Z,55.84
2023-03-31T03:59:37.068Z,55.67
2023-03-31T04:02:05.557Z,55.74
2023-03-31T04:04:33.826Z,55.84
2023-03-31T04:07:02.251Z,56.16
2023-03-31T04:09:30.549Z,56.28
2023-03-31T04:11:58.811Z,56.39
2023-03-31T04:14:27.280Z,56.26
2023-03-31T04:16:57.160Z,56.90
2023-03-31T04:19:28.723Z,56.75
2023-03-31T04:21:59.635Z,57.19
2023-03-31T04:24:33.714Z,57.22
2023-03-31T04:27:03.640Z,57.34
2023-03-31T04:29:34.309Z,57.43
2023-03-31T04:32:03.007Z,57.49
2023-03-31T04:34:37.098Z,57.84
2023-03-31T04:37:05.447Z,57.98
2023-03-31T04:39:33.670Z,58.03
2023-03-31T04:42:02.639Z,58.00
2023-03-31T04:44:31.528Z,58.13
2023-03-31T04:47:03.626Z,58.47
2023-03-31T04:49:34.318Z,58.87
2023-03-31T04:52:02.750Z,59.04
2023-03-31T04:54:30.971Z,59.22
2023-03-31T04:56:59.352Z,59.07
2023-03-31T04:59:27.572Z,59.12
2023-03-31T05:01:55.833Z,59.33
2023-03-31T05:04:24.185Z,59.49
2023-03-31T05:06:52.514Z,59.64
2023-03-31T05:09:21.529Z,59.64
2023-03-31T05:11:50.207Z,60.00
2023-03-31T05:14:18.409Z,60.00
2023-03-31T05:16:46.848Z,60.28
2023-03-31T05:19:15.383Z,60.27
2023-03-31T05:21:43.682Z,60.39
2023-03-31T05:24:12.382Z,60.47
2023-03-31T05:26:42.156Z,60.67
2023-03-31T05:29:10.418Z,60.71
2023-03-31T05:31:38.733Z,60.86
2023-03-31T05:34:07.244Z,61.04
2023-03-31T05:36:36.014Z,61.17
2023-03-31T05:39:06.010Z,61.35
2023-03-31T05:41:35.097Z,61.29
2023-03-31T05:44:03.392Z,61.44
2023-03-31T05:46:32.336Z,61.23
2023-03-31T05:49:00.746Z,61.42
2023-03-31T05:51:29.104Z,61.70
2023-03-31T05:53:57.397Z,62.15
2023-03-31T05:56:25.755Z,61.97
2023-03-31T05:58:54.334Z,61.95
2023-03-31T06:01:24.095Z,62.21
2023-03-31T06:03:52.838Z,61.99
2023-03-31T06:06:21.302Z,62.31
2023-03-31T06:08:50.252Z,62.42
2023-03-31T06:11:20.695Z,62.36
2023-03-31T06:13:49.638Z,62.64
2023-03-31T06:16:19.283Z,62.49
2023-03-31T06:18:47.815Z,63.17
2023-03-31T06:21:18.304Z,63.02
2023-03-31T06:23:47.310Z,63.21
2023-03-31T06:26:20.620Z,62.83
2023-03-31T06:28:48.905Z,62.89
2023-03-31T06:31:22.534Z,63.25
2023-03-31T06:33:51.125Z,62.84
2023-03-31T06:36:21.907Z,63.19
2023-03-31T06:38:51.405Z,63.35
2023-03-31T06:41:21.843Z,63.27
2023-03-31T06:43:50.350Z,63.38
2023-03-31T06:46:18.929Z,63.75
2023-03-31T06:48:47.204Z,63.92
2023-03-31T06:51:15.522Z,63.68
2023-03-31T06:53:44.148Z,63.67
2023-03-31T06:56:12.505Z,63.88
2023-03-31T06:58:40.703Z,63.98
2023-03-31T07:01:09.293Z,64.26
2023-03-31T07:03:37.779Z,64.35
2023-03-31T07:06:06.362Z,63.92
2023-03-31T07:08:34.569Z,63.96
2023-03-31T07:11:03.525Z,64.61
2023-03-31T07:13:32.028Z,64.27
2023-03-31T07:16:00.501Z,64.63
2023-03-31T07:18:34.796Z,64.79
2023-03-31T07:21:07.073Z,64.48
2023-03-31T07:23:37.296Z,64.65
2023-03-31T07:26:05.723Z,64.64
2023-03-31T07:28:34.079Z,64.50
2023-03-31T07:31:02.311Z,64.79
2023-03-31T07:33:30.656Z,65.05
2023-03-31T07:36:11.038Z,64.93
2023-03-31T07:38:42.874Z,64.92
2023-03-31T07:41:15.752Z,65.55
2023-03-31T07:43:44.508Z,65.19
2023-03-31T07:46:28.045Z,65.10
2023-03-31T07:48:57.677Z,64.98
2023-03-31T07:51:28.054Z,65.28
2023-03-31T07:53:56.309Z,65.32
2023-03-31T07:56:26.304Z,64.83
2023-03-31T07:58:57.343Z,64.92
2023-03-31T08:01:27.118Z,65.08
2023-03-31T08:03:57.279Z,64.92
2023-03-31T08:06:28.589Z,65.20
2023-03-31T08:08:58.699Z,65.00
2023-03-31T08:11:28.330Z,65.08
2023-03-31T08:13:57.837Z,65.35
2023-03-31T08:16:27.708Z,65.72
2023-03-31T08:18:56.149Z,65.82
2023-03-31T08:21:25.007Z,66.00
2023-03-31T08:23:56.402Z,65.66
2023-03-31T08:26:28.048Z,65.93
2023-03-31T08:29:00.614Z,65.48
2023-03-31T08:31:31.018Z,65.89
2023-03-31T08:34:00.438Z,66.12
2023-03-31T08:36:30.091Z,65.67
2023-03-31T08:38:59.665Z,66.27
2023-03-31T08:41:56.621Z,66.24
2023-03-31T08:44:39.797Z,66.31
2023-03-31T08:47:15.598Z,66.44
2023-03-31T08:49:51.475Z,65.91
2023-03-31T08:52:36.185Z,66.06
2023-03-31T08:55:09.118Z,66.37
2023-03-31T08:57:45.514Z,66.94
2023-03-31T09:00:20.401Z,66.39
2023-03-31T09:03:05.676Z,66.61
2023-03-31T09:06:01.495Z,66.26
2023-03-31T09:08:37.343Z,66.54
2023-03-31T09:11:29.185Z,66.62
2023-03-31T09:14:17.833Z,66.77
2023-03-31T09:16:52.779Z,66.94
2023-03-31T09:19:53.913Z,67.24
2023-03-31T09:22:28.924Z,66.88
2023-03-31T09:25:11.960Z,66.99
2023-03-31T09:27:43.543Z,67.46
2023-03-31T09:30:23.668Z,66.62
2023-03-31T09:33:00.486Z,66.89
2023-03-31T09:35:30.010Z,67.04
2023-03-31T09:37:59.233Z,67.57
2023-03-31T09:40:29.825Z,67.15
2023-03-31T09:43:10.088Z,66.94
2023-03-31T09:45:38.344Z,67.79
2023-03-31T09:48:13.204Z,67.34
2023-03-31T09:50:50.254Z,67.71
2023-03-31T09:53:34.541Z,67.71
2023-03-31T09:56:04.883Z,67.53
2023-03-31T09:58:44.080Z,67.26
2023-03-31T10:01:15.385Z,67.56
2023-03-31T10:03:54.669Z,67.85
2023-03-31T10:06:24.972Z,67.67
2023-03-31T10:09:04.717Z,67.34
2023-03-31T10:11:33.626Z,67.89
2023-03-31T10:14:06.060Z,67.50
2023-03-31T10:16:44.092Z,67.58
2023-03-31T10:19:30.977Z,67.97
2023-03-31T10:22:02.005Z,68.22
2023-03-31T10:24:47.330Z,67.81
2023-03-31T10:27:25.540Z,67.83
2023-03-31T10:29:56.843Z,67.98
2023-03-31T10:32:32.681Z,68.19
2023-03-31T10:35:26.301Z,67.93
2023-03-31T10:37:58.973Z,67.59
2023-03-31T10:40:29.501Z,68.23
2023-03-31T10:43:23.090Z,68.43
2023-03-31T10:46:02.150Z,68.51
2023-03-31T10:48:36.233Z,68.21
2023-03-31T10:51:18.693Z,68.22
2023-03-31T10:54:01.485Z,68.04
2023-03-31T10:56:44.746Z,68.17
2023-03-31T10:59:43.268Z,68.25
2023-03-31T11:02:50.824Z,68.08
2023-03-31T11:05:33.822Z,68.44
2023-03-31T11:08:17.943Z,67.88
2023-03-31T11:10:53.499Z,68.05
2023-03-31T11:13:34.634Z,68.04
2023-03-31T11:16:25.270Z,68.19
2023-03-31T11:19:17.379Z,68.13
2023-03-31T11:22:10.677Z,68.34
2023-03-31T11:25:12.805Z,69.01
2023-03-31T11:28:00.717Z,68.90
2023-03-31T11:30:36.581Z,68.18
2023-03-31T11:33:18.928Z,68.19
2023-03-31T11:35:51.768Z,68.79
2023-03-31T11:38:46.735Z,69.17
2023-03-31T11:41:18.855Z,68.65
2023-03-31T11:43:53.510Z,68.71
2023-03-31T11:46:39.107Z,68.89
2023-03-31T11:49:10.389Z,68.60
2023-03-31T11:51:51.664Z,68.92
2023-03-31T11:54:41.616Z,69.44
2023-03-31T11:57:22.962Z,68.75
2023-03-31T12:00:08.257Z,68.90
2023-03-31T12:02:54.204Z,68.94
2023-03-31T12:05:25.474Z,68.71
2023-03-31T12:08:07.081Z,68.74
2023-03-31T12:10:52.319Z,68.41
2023-03-31T12:13:46.514Z,69.72
2023-03-31T12:16:48.800Z,69.23
2023-03-31T12:19:34.811Z,69.20
2023-03-31T12:22:16.367Z,69.76
2023-03-31T12:24:45.124Z,69.15
2023-03-31T12:27:18.322Z,69.18
2023-03-31T12:29:58.709Z,69.55
2023-03-31T12:32:42.644Z,69.13
2023-03-31T12:35:23.188Z,69.06
2023-03-31T12:38:28.471Z,69.16
2023-03-31T12:41:20.759Z,69.38
2023-03-31T12:44:08.842Z,69.20
2023-03-31T12:47:07.341Z,69.27
2023-03-31T12:50:03.893Z,69.63
2023-03-31T12:52:50.512Z,69.25
2023-03-31T12:55:37.182Z,69.11
2023-03-31T12:58:23.987Z,70.18
2023-03-31T13:01:12.307Z,70.39
2023-03-31T13:03:46.334Z,69.63
2023-03-31T13:06:34.649Z,70.01
2023-03-31T13:09:06.721Z,69.95
2023-03-31T13:11:35.113Z,70.07
2023-03-31T13:14:22.750Z,69.28
2023-03-31T13:16:55.664Z,70.40
2023-03-31T13:19:37.141Z,69.87
2023-03-31T13:22:07.721Z,70.09
2023-03-31T13:24:36.459Z,70.24
2023-03-31T13:27:35.262Z,70.15
2023-03-31T13:30:04.362Z,69.90
2023-03-31T13:32:32.575Z,70.35
2023-03-31T13:35:32.262Z,70.07
2023-03-31T13:38:09.521Z,69.51
2023-03-31T13:41:14.879Z,69.90
2023-03-31T13:43:45.917Z,70.53
2023-03-31T13:46:51.916Z,70.14
2023-03-31T13:49:42.497Z,70.68
2023-03-31T13:52:14.565Z,70.52
2023-03-31T13:55:08.441Z,70.08
2023-03-31T13:57:40.315Z,70.20
2023-03-31T14:00:52.055Z,70.78
2023-03-31T14:03:23.725Z,69.90
2023-03-31T14:06:16.787Z,70.49
2023-03-31T14:09:05.065Z,70.16
2023-03-31T14:11:33.691Z,70.68
2023-03-31T14:14:05.153Z,70.50
2023-03-31T14:16:55.472Z,70.11
2023-03-31T14:19:42.422Z,70.17
2023-03-31T14:22:32.653Z,70.60
2023-03-31T14:25:29.536Z,70.27
2023-03-31T14:27:59.244Z,70.35
2023-03-31T14:30:48.184Z,70.36
2023-03-31T14:34:03.835Z,70.86
2023-03-31T14:37:01.232Z,69.92
2023-03-31T14:39:46.931Z,70.48
2023-03-31T14:42:21.076Z,70.41
2023-03-31T14:44:50.461Z,70.17
2023-03-31T14:47:23.658Z,70.47
2023-03-31T14:50:09.779Z,69.84
2023-03-31T14:52:38.247Z,70.38
2023-03-31T14:55:07.633Z,70.16
2023-03-31T14:57:39.338Z,70.06
2023-03-31T15:00:13.373Z,70.20
2023-03-31T15:02:47.808Z,69.60
2023-03-31T15:05:42.854Z,70.06
2023-03-31T15:08:26.857Z,69.66
2023-03-31T15:11:11.752Z,69.68
2023-03-31T15:14:01.105Z,69.65
2023-03-31T15:16:46.247Z,69.52
2023-03-31T15:19:23.670Z,68.89
2023-03-31T15:22:03.149Z,69.47
2023-03-31T15:24:32.092Z,69.18
2023-03-31T15:27:05.909Z,68.98
2023-03-31T15:30:04.024Z,68.60
2023-03-31T15:32:37.213Z,68.61
2023-03-31T15:35:21.024Z,68.59
2023-03-31T15:37:53.020Z,68.11
2023-03-31T15:40:52.967Z,67.97
2023-03-31T15:43:51.660Z,67.73
2023-03-31T15:46:46.966Z,67.79
2023-03-31T15:49:26.462Z,67.68
2023-03-31T15:51:57.838Z,67.16
2023-03-31T15:54:42.011Z,66.83
2023-03-31T15:57:16.013Z,66.88
2023-03-31T15:59:55.746Z,66.74
2023-03-31T16:02:44.159Z,66.68
2023-03-31T16:05:43.726Z,66.33
2023-03-31T16:08:45.171Z,66.22
2023-03-31T16:11:29.026Z,65.79
2023-03-31T16:14:00.890Z,65.66
2023-03-31T16:16:30.874Z,65.59
2023-03-31T16:19:10.937Z,65.62
2023-03-31T16:21:48.268Z,65.48
2023-03-31T16:24:17.358Z,65.45
2023-03-31T16:26:46.462Z,65.25
2023-03-31T16:29:24.166Z,64.98
2023-03-31T16:32:12.352Z,64.62
2023-03-31T16:35:12.675Z,64.17
2023-03-31T16:37:40.884Z,64.31
2023-03-31T16:40:10.756Z,64.03
2023-03-31T16:42:39.003Z,63.67
2023-03-31T16:45:14.351Z,63.38
2023-03-31T16:47:45.514Z,63.31
2023-03-31T16:50:15.913Z,63.30
2023-03-31T16:52:45.266Z,62.91
2023-03-31T16:55:13.634Z,62.91
2023-03-31T16:57:42.234Z,62.49
2023-03-31T17:00:11.601Z,62.41
2023-03-31T17:02:39.892Z,61.82
2023-03-31T17:05:13.033Z,61.96
2023-03-31T17:07:42.202Z,61.91
2023-03-31T17:10:11.120Z,61.43
2023-03-31T17:12:39.633Z,61.51
2023-03-31T17:15:08.554Z,60.91
2023-03-31T17:17:37.710Z,60.94
2023-03-31T17:20:07.566Z,60.53
2023-03-31T17:22:36.583Z,60.28
2023-03-31T17:25:05.424Z,60.00
2023-03-31T17:27:34.599Z,59.55
2023-03-31T17:32:31.925Z,58.88
2023-03-31T17:35:00.451Z,59.22
2023-03-31T17:37:28.797Z,59.02
2023-03-31T17:39:57.018Z,58.81
2023-03-31T17:42:25.695Z,58.54
2023-03-31T17:44:54.545Z,58.65
2023-03-31T17:47:22.800Z,57.95
2023-03-31T17:49:50.999Z,56.99
2023-03-31T17:52:19.232Z,57.03
2023-03-31T17:54:49.453Z,57.19
2023-03-31T17:57:19.436Z,56.57
2023-03-31T17:59:49.459Z,57.04
2023-03-31T18:02:17.723Z,56.51
2023-03-31T18:04:46.350Z,56.00
2023-03-31T18:07:15.049Z,56.04
2023-03-31T18:09:43.572Z,56.12
2023-03-31T18:12:11.868Z,56.11
2023-03-31T18:14:40.406Z,56.02
2023-03-31T18:17:08.625Z,56.12
2023-03-31T18:19:37.248Z,55.94
2023-03-31T18:22:05.513Z,55.25
2023-03-31T18:24:33.807Z,55.27
2023-03-31T18:27:02.370Z,55.14
2023-03-31T18:29:30.623Z,55.28
2023-03-31T18:31:58.907Z,54.69
2023-03-31T18:34:27.629Z,54.33
2023-03-31T18:36:56.031Z,54.42
2023-03-31T18:39:24.349Z,53.35
2023-03-31T18:41:54.351Z,53.03
2023-03-31T18:44:23.037Z,53.50
2023-03-31T18:46:51.433Z,53.28
2023-03-31T18:49:21.103Z,52.85
2023-03-31T18:51:49.362Z,52.62
2023-03-31T18:54:17.941Z,52.80
2023-03-31T18:56:46.657Z,53.13
2023-03-31T18:59:14.993Z,53.18
2023-03-31T19:01:43.268Z,52.50
2023-03-31T19:04:11.703Z,52.52
2023-03-31T19:06:40.017Z,52.36
2023-03-31T19:09:08.867Z,52.04
2023-03-31T19:11:38.999Z,51.49
2023-03-31T19:14:07.675Z,51.50
2023-03-31T19:16:42.515Z,51.14
2023-03-31T19:19:11.664Z,50.81
2023-03-31T19:21:40.199Z,50.43
2023-03-31T19:24:08.591Z,51.21
2023-03-31T19:26:37.268Z,51.06
2023-03-31T19:29:06.272Z,50.56
2023-03-31T19:31:39.021Z,50.78
2023-03-31T19:34:08.819Z,50.72
2023-03-31T19:36:37.101Z,50.33
2023-03-31T19:39:07.361Z,50.40
2023-03-31T19:41:37.161Z,49.26
2023-03-31T19:44:05.565Z,49.59
2023-03-31T19:46:34.000Z,49.46
2023-03-31T19:49:02.313Z,48.83
2023-03-31T19:51:30.663Z,48.97
2023-03-31T19:53:59.330Z,48.69
2023-03-31T19:56:28.402Z,48.15
2023-03-31T19:58:57.655Z,48.77
2023-03-31T20:01:29.059Z,48.71
2023-03-31T20:03:57.583Z,48.70
2023-03-31T20:06:28.175Z,48.34
2023-03-31T20:08:59.586Z,48.31
2023-03-31T20:11:29.360Z,47.57
2023-03-31T20:13:58.169Z,47.06
2023-03-31T20:16:29.021Z,46.78
2023-03-31T20:19:02.723Z,46.60
2023-03-31T20:21:32.701Z,47.58
2023-03-31T20:24:01.294Z,47.15
2023-03-31T20:26:31.125Z,46.63
2023-03-31T20:29:02.753Z,46.40
2023-03-31T20:31:39.307Z,46.22
2023-03-31T20:34:13.122Z,46.70
2023-03-31T20:36:43.102Z,46.22
2023-03-31T20:39:13.975Z,45.20
2023-03-31T20:41:42.259Z,45.43
2023-03-31T20:44:15.925Z,45.46
2023-03-31T20:46:45.524Z,45.40
2023-03-31T20:49:14.095Z,44.69
2023-03-31T20:51:43.445Z,43.97
2023-03-31T20:54:11.731Z,44.85
2023-03-31T20:56:41.677Z,44.95
2023-03-31T20:59:13.714Z,43.78
2023-03-31T21:01:43.299Z,44.21
2023-03-31T21:04:12.705Z,44.54
2023-03-31T21:06:44.167Z,44.76
2023-03-31T21:09:13.569Z,44.73
2023-03-31T21:11:42.375Z,44.19
2023-03-31T21:14:17.612Z,43.50
2023-03-31T21:16:46.429Z,43.33
2023-03-31T21:19:14.729Z,42.84
2023-03-31T21:21:44.104Z,43.00
2023-03-31T21:24:13.633Z,43.24
2023-03-31T21:26:42.405Z,43.80
2023-03-31T21:29:10.798Z,43.53
2023-03-31T21:31:39.254Z,42.23
2023-03-31T21:34:07.600Z,41.87
2023-03-31T21:36:35.898Z,40.61
2023-03-31T21:39:04.210Z,41.72
2023-03-31T21:41:32.960Z,42.95
2023-03-31T21:44:02.802Z,42.70
2023-03-31T21:46:33.604Z,42.58
2023-03-31T21:49:02.723Z,41.93
2023-03-31T21:51:31.825Z,41.47
2023-03-31T21:54:00.054Z,40.46
2023-03-31T21:56:32.130Z,39.66
2023-03-31T21:59:01.937Z,39.92
2023-03-31T22:01:30.177Z,40.03
2023-03-31T22:03:59.920Z,38.12
2023-03-31T22:06:28.356Z,39.83
2023-03-31T22:08:56.919Z,40.54
2023-03-31T22:11:25.236Z,39.60
2023-03-31T22:13:53.610Z,39.16
2023-03-31T22:16:23.723Z,39.62
2023-03-31T22:18:53.554Z,38.64
2023-03-31T22:21:27.130Z,39.93
2023-03-31T22:23:58.351Z,39.44
2023-03-31T22:26:29.474Z,39.10
2023-03-31T22:28:58.485Z,38.44
2023-03-31T22:31:29.960Z,38.46
2023-03-31T22:33:58.236Z,38.53
2023-03-31T22:36:26.549Z,37.94
2023-03-31T22:38:54.902Z,38.01
2023-03-31T22:41:23.376Z,37.86
2023-03-31T22:43:52.341Z,37.92
2023-03-31T22:46:20.655Z,38.41
2023-03-31T22:48:52.351Z,38.21
2023-03-31T22:51:20.646Z,38.36
2023-03-31T22:53:54.470Z,38.49
2023-03-31T22:56:23.884Z,38.69
2023-03-31T22:58:53.036Z,38.20
2023-03-31T23:01:22.498Z,38.14
2023-03-31T23:03:51.305Z,39.74
2023-03-31T23:06:19.865Z,40.45
2023-03-31T23:08:49.816Z,40.07
2023-03-31T23:11:19.456Z,40.79
2023-03-31T23:13:48.337Z,40.98
2023-03-31T23:16:26.083Z,41.76
2023-03-31T23:18:55.704Z,41.81
2023-03-31T23:21:26.388Z,41.96
2023-03-31T23:23:58.520Z,41.91
2023-03-31T23:26:28.680Z,42.18
2023-03-31T23:28:58.260Z,42.55
2023-03-31T23:31:29.570Z,42.56
2023-03-31T23:34:00.169Z,42.46
2023-03-31T23:36:28.981Z,42.92
2023-03-31T23:38:59.272Z,43.34
2023-03-31T23:41:27.511Z,42.93
2023-03-31T23:43:56.774Z,43.03
2023-03-31T23:46:26.735Z,43.02
2023-03-31T23:48:55.522Z,43.20
2023-03-31T23:51:24.101Z,43.71
2023-03-31T23:53:52.814Z,43.70
2023-03-31T23:56:21.344Z,43.69
2023-03-31T23:58:49.548Z,43.92
